Time;durP1;ratioP1;P1;durP2;ratioP2;P2;SDS_P1;SDS_P2;PMS_P1;PMS_P2;Temp;Humidity;BMP_temperature;BMP_pressure;BME280_temperature;BME280_humidity;BME280_pressure;Samples;Min_cycle;Max_cycle;Signal;HPM_P1;HPM_P2
2022/08/17 00:00:15;;;;;;;11.13;7.43;;;;;;;22.36;100.00;95803.44;5082260;28;20072;-51
2022/08/17 00:03:09;;;;;;;12.75;6.57;;;;;;;22.24;100.00;95792.72;5086596;28;20532;-48
2022/08/17 00:05:41;;;;;;;9.65;6.95;;;;;;;21.94;100.00;95798.16;5090365;28;20079;-53
2022/08/17 00:08:10;;;;;;;8.50;6.85;;;;;;;22.20;100.00;95794.25;5086036;28;20068;-50
2022/08/17 00:10:39;;;;;;;7.65;6.85;;;;;;;22.16;100.00;95795.75;5084296;28;20079;-49
2022/08/17 00:13:11;;;;;;;8.88;7.30;;;;;;;22.40;100.00;95791.19;5082448;28;20060;-53
2022/08/17 00:15:39;;;;;;;8.05;6.97;;;;;;;22.34;100.00;95792.13;5088817;28;20084;-54
2022/08/17 00:18:08;;;;;;;11.45;7.35;;;;;;;22.34;100.00;95792.13;5085916;28;20090;-53
2022/08/17 00:20:57;;;;;;;10.60;6.70;;;;;;;22.20;100.00;95796.13;5085228;28;20514;-49
2022/08/17 00:23:27;;;;;;;10.47;6.90;;;;;;;21.96;100.00;95796.06;5089527;28;20088;-50
2022/08/17 00:25:55;;;;;;;9.40;6.85;;;;;;;21.98;100.00;95796.63;5085819;28;20103;-49
2022/08/17 00:28:25;;;;;;;8.15;7.05;;;;;;;21.82;100.00;95786.59;5085190;28;20167;-52
2022/08/17 00:30:58;;;;;;;9.38;7.15;;;;;;;21.56;100.00;95785.16;5083432;28;20442;-51
2022/08/17 00:33:29;;;;;;;9.80;7.05;;;;;;;21.35;100.00;95785.69;5085567;28;20080;-48
2022/08/17 00:35:59;;;;;;;10.07;6.93;;;;;;;21.84;100.00;95778.31;5085224;28;20059;-48
2022/08/17 00:38:28;;;;;;;10.93;7.25;;;;;;;21.99;100.00;95771.44;5081415;28;20079;-52
2022/08/17 00:40:59;;;;;;;8.52;7.45;;;;;;;22.11;100.00;95774.13;5080767;28;20098;-53
2022/08/17 00:43:33;;;;;;;11.43;7.10;;;;;;;22.12;100.00;95770.38;5088732;28;20088;-54
2022/08/17 00:46:05;;;;;;;7.68;5.95;;;;;;;21.90;100.00;95772.84;5082845;28;20047;-50
2022/08/17 00:48:34;;;;;;;8.25;6.40;;;;;;;21.69;100.00;95782.25;5088009;28;20066;-54
2022/08/17 00:51:07;;;;;;;7.53;5.93;;;;;;;21.48;100.00;95770.22;5087898;28;20071;-51
2022/08/17 00:53:39;;;;;;;11.98;7.97;;;;;;;21.55;100.00;95773.59;5084808;28;20064;-51
2022/08/17 00:56:11;;;;;;;10.88;8.25;;;;;;;21.61;100.00;95773.72;5089181;28;20090;-50
2022/08/17 00:58:41;;;;;;;12.82;8.55;;;;;;;21.60;100.00;95780.13;5086567;28;20071;-54
2022/08/17 01:01:11;;;;;;;13.82;8.30;;;;;;;21.52;100.00;95770.56;5086093;28;20078;-54
2022/08/17 01:03:48;;;;;;;13.15;7.60;;;;;;;21.58;100.00;95766.97;5085730;28;20079;-53
2022/08/17 01:06:17;;;;;;;9.35;8.05;;;;;;;21.61;100.00;95766.50;5087882;28;20487;-55
2022/08/17 01:08:46;;;;;;;13.65;8.05;;;;;;;21.60;100.00;95764.84;5088879;28;20604;-52
2022/08/17 01:11:16;;;;;;;9.68;7.55;;;;;;;21.38;100.00;95753.84;5087400;28;20480;-51
2022/08/17 01:13:46;;;;;;;11.40;7.15;;;;;;;21.48;100.00;95758.66;5084562;28;20076;-48
2022/08/17 01:16:16;;;;;;;;;;;;;;;20.91;100.00;95761.72;5084095;28;20081;-50
2022/08/17 01:18:47;;;;;;;7.63;6.60;;;;;;;21.02;100.00;95760.94;5084991;28;19971;-52
2022/08/17 01:21:16;;;;;;;;;;;;;;;21.13;100.00;95759.38;5084941;28;20075;-52
2022/08/17 01:23:46;;;;;;;11.35;6.70;;;;;;;21.06;100.00;95755.97;5078552;28;20452;-54
2022/08/17 01:26:14;;;;;;;10.25;6.60;;;;;;;21.00;100.00;95765.72;5088474;28;20086;-50
2022/08/17 01:28:43;;;;;;;6.85;6.15;;;;;;;21.23;100.00;95756.09;5085913;28;20071;-52
2022/08/17 01:31:24;;;;;;;10.45;6.55;;;;;;;21.27;100.00;95755.44;5086295;28;20067;-53
2022/08/17 01:33:53;;;;;;;7.38;5.68;;;;;;;21.06;100.00;95754.09;5085856;28;20071;-51
2022/08/17 01:36:21;;;;;;;7.15;6.03;;;;;;;21.07;100.00;95766.44;5081640;28;20102;-52
2022/08/17 01:38:51;;;;;;;6.80;6.00;;;;;;;21.05;100.00;95768.53;5087136;28;20515;-50
2022/08/17 01:41:21;;;;;;;8.10;6.18;;;;;;;21.11;100.00;95764.13;5080265;28;20083;-50
2022/08/17 01:43:52;;;;;;;14.13;6.97;;;;;;;21.15;100.00;95761.81;5085851;28;20079;-54
2022/08/17 01:46:23;;;;;;;9.30;6.28;;;;;;;21.13;100.00;95762.03;5079144;28;20094;-55
2022/08/17 01:48:51;;;;;;;9.40;5.97;;;;;;;20.96;100.00;95767.22;5086493;28;20454;-53
2022/08/17 01:51:20;;;;;;;9.30;6.07;;;;;;;20.98;100.00;95769.66;5085428;28;20087;-52
2022/08/17 01:53:53;;;;;;;9.75;5.53;;;;;;;20.94;100.00;95777.34;5087298;28;20079;-50
2022/08/17 01:56:23;;;;;;;7.97;6.28;;;;;;;20.83;100.00;95778.91;5087581;28;20068;-48
2022/08/17 01:58:52;;;;;;;21.65;6.28;;;;;;;20.77;100.00;95779.81;5083559;28;20075;-57
2022/08/17 02:01:25;;;;;;;8.15;6.60;;;;;;;20.49;100.00;95780.31;5083060;28;20080;-54
2022/08/17 02:03:54;;;;;;;10.68;7.65;;;;;;;20.65;100.00;95770.06;5084114;28;20071;-49
2022/08/17 02:06:29;;;;;;;9.57;7.03;;;;;;;20.24;100.00;95774.22;5083746;28;20090;-54
2022/08/17 02:09:00;;;;;;;8.00;7.20;;;;;;;20.28;100.00;95767.38;5085717;28;20106;-49
2022/08/17 02:11:32;;;;;;;9.10;7.53;;;;;;;20.39;100.00;95767.44;5084413;28;20098;-51
2022/08/17 02:14:01;;;;;;;9.32;7.90;;;;;;;20.17;100.00;95760.09;5085747;28;20105;-53
2022/08/17 02:16:31;;;;;;;;;;;;;;;20.47;100.00;95754.81;5082288;28;20565;-52
2022/08/17 02:19:06;;;;;;;10.93;7.90;;;;;;;20.65;100.00;95760.19;5075720;28;19947;-52
2022/08/17 02:21:35;;;;;;;10.32;8.60;;;;;;;20.54;100.00;95758.25;5084932;28;20086;-50
2022/08/17 02:24:07;;;;;;;10.10;8.73;;;;;;;20.45;100.00;95751.56;5083230;28;20072;-52
2022/08/17 02:26:35;;;;;;;12.95;8.85;;;;;;;20.28;100.00;95752.13;5084847;28;20087;-47
2022/08/17 02:29:04;;;;;;;10.32;8.93;;;;;;;20.48;100.00;95759.13;5081499;28;20079;-52
2022/08/17 02:31:34;;;;;;;13.55;9.13;;;;;;;20.56;100.00;95754.31;5019119;27;20118;-51
2022/08/17 02:34:03;;;;;;;12.43;8.45;;;;;;;20.72;100.00;95760.13;5041819;28;20073;-53
2022/08/17 02:36:34;;;;;;;7.50;6.78;;;;;;;20.76;100.00;95748.72;5038838;28;20069;-51
2022/08/17 02:39:02;;;;;;;7.97;6.57;;;;;;;20.71;100.00;95753.09;5037279;28;20097;-51
2022/08/17 02:41:32;;;;;;;9.82;7.18;;;;;;;20.75;100.00;95748.91;5035580;28;20081;-53
2022/08/17 02:44:01;;;;;;;12.07;7.55;;;;;;;20.69;100.00;95747.97;5043630;28;20073;-50
2022/08/17 02:46:31;;;;;;;9.00;7.38;;;;;;;20.73;100.00;95741.13;5034841;28;20083;-50
2022/08/17 02:48:59;;;;;;;7.80;7.00;;;;;;;20.77;100.00;95744.16;5036039;28;20084;-49
2022/08/17 02:51:28;;;;;;;12.07;8.05;;;;;;;20.80;100.00;95733.00;5038529;28;20084;-51
2022/08/17 02:53:56;;;;;;;10.43;7.28;;;;;;;20.69;100.00;95734.59;5039424;28;20084;-55
2022/08/17 02:56:46;;;;;;;11.70;7.82;;;;;;;20.44;100.00;95729.31;5036332;28;20080;-53
2022/08/17 02:59:14;;;;;;;13.20;8.90;;;;;;;20.47;100.00;95725.34;5039442;28;20496;-57
2022/08/17 03:01:43;;;;;;;8.55;7.68;;;;;;;20.53;100.00;95733.34;5040130;28;20092;-54
2022/08/17 03:04:11;;;;;;;11.43;8.00;;;;;;;20.55;100.00;95730.44;5043975;28;20071;-54
2022/08/17 03:06:39;;;;;;;11.60;8.20;;;;;;;20.52;100.00;95731.69;5038384;28;20072;-51
2022/08/17 03:09:08;;;;;;;9.63;7.85;;;;;;;20.17;100.00;95738.69;5041675;28;20187;-51
2022/08/17 03:11:36;;;;;;;8.27;7.28;;;;;;;20.08;100.00;95735.47;5039085;28;20081;-52
2022/08/17 03:14:06;;;;;;;10.38;7.70;;;;;;;20.07;100.00;95734.66;5036104;28;20484;-54
2022/08/17 03:16:35;;;;;;;9.38;7.55;;;;;;;19.89;100.00;95729.28;5044122;28;20084;-52
2022/08/17 03:19:03;;;;;;;9.05;7.55;;;;;;;20.02;100.00;95723.78;5041772;28;20081;-50
2022/08/17 03:21:31;;;;;;;11.40;8.20;;;;;;;20.21;100.00;95719.25;5041114;28;20079;-49
2022/08/17 03:24:00;;;;;;;9.38;7.32;;;;;;;20.25;100.00;95727.66;5041658;28;20104;-51
2022/08/17 03:26:35;;;;;;;9.80;6.78;;;;;;;20.22;100.00;95722.75;5042410;28;20558;-49
2022/08/17 03:29:05;;;;;;;9.05;7.90;;;;;;;20.25;100.00;95725.81;5034797;28;20539;-47
2022/08/17 03:31:34;;;;;;;9.00;8.10;;;;;;;20.02;100.00;95723.78;5036134;28;20080;-52
2022/08/17 03:34:04;;;;;;;10.07;8.38;;;;;;;19.85;100.00;95720.84;5040447;28;20077;-47
2022/08/17 03:36:32;;;;;;;11.40;9.65;;;;;;;19.69;100.00;95713.41;5046259;28;21679;-51
2022/08/17 03:39:03;;;;;;;;;;;;;;;19.77;100.00;95718.47;5044070;28;20091;-50
2022/08/17 03:41:31;;;;;;;11.05;9.48;;;;;;;19.78;100.00;95725.44;5041237;28;19964;-51
2022/08/17 03:44:00;;;;;;;11.63;9.63;;;;;;;19.96;100.00;95721.16;5044974;28;20504;-52
2022/08/17 03:57:35;;;;;;;8.90;7.53;;;;;;;19.49;100.00;95751.00;5048231;28;20083;-51
2022/08/17 04:00:05;;;;;;;10.95;8.30;;;;;;;19.35;100.00;95755.63;5037930;28;20091;-54
2022/08/17 04:02:34;;;;;;;13.15;8.85;;;;;;;19.52;100.00;95760.44;5036780;28;20088;-52
2022/08/17 04:05:04;;;;;;;12.23;10.13;;;;;;;19.31;100.00;95756.28;5069518;28;20418;-53
2022/08/17 04:07:32;;;;;;;12.68;9.80;;;;;;;19.43;100.00;95757.22;5043689;28;20065;-55
2022/08/17 04:10:01;;;;;;;11.55;9.57;;;;;;;19.76;100.00;95756.16;5036003;28;20084;-57
2022/08/17 04:12:43;;;;;;;13.40;9.07;;;;;;;19.90;100.00;95761.16;5036669;28;20056;-57
2022/08/17 04:15:12;;;;;;;10.70;8.32;;;;;;;20.06;100.00;95762.47;5045796;28;20076;-57
2022/08/17 04:17:44;;;;;;;9.88;8.15;;;;;;;20.27;100.00;95760.41;5051258;28;20087;-55
2022/08/17 04:20:14;;;;;;;8.57;7.47;;;;;;;20.14;100.00;95762.16;5050620;28;20087;-56
2022/08/17 04:22:56;;;;;;;9.00;7.53;;;;;;;20.21;100.00;95759.41;5047538;28;20045;-56
2022/08/17 04:25:27;;;;;;;10.75;8.30;;;;;;;20.51;100.00;95766.72;5050430;28;20073;-58
2022/08/17 04:27:56;;;;;;;10.65;8.52;;;;;;;20.60;100.00;95760.03;5045680;28;20084;-54
2022/08/17 04:30:26;;;;;;;14.45;9.40;;;;;;;20.76;100.00;95762.13;5050904;28;20040;-50
2022/08/17 04:32:58;;;;;;;12.73;10.05;;;;;;;20.94;100.00;95763.13;5051946;28;20049;-54
2022/08/17 04:35:36;;;;;;;10.70;9.10;;;;;;;20.95;100.00;95756.72;5052230;28;20083;-52
2022/08/17 04:38:06;;;;;;;10.95;8.15;;;;;;;21.09;100.00;95750.97;5052345;28;20080;-56
2022/08/17 04:43:37;;;;;;;10.75;8.82;;;;;;;21.19;100.00;95761.09;5033594;28;20056;-57
2022/08/17 04:46:07;;;;;;;10.10;9.02;;;;;;;21.28;100.00;95757.06;5042669;28;20077;-57
2022/08/17 04:48:40;;;;;;;15.27;9.35;;;;;;;21.38;100.00;95759.22;5035108;28;20037;-53
2022/08/17 04:51:11;;;;;;;14.85;10.00;;;;;;;21.01;100.00;95756.63;5051721;28;20095;-56
2022/08/17 04:53:40;;;;;;;12.30;9.95;;;;;;;21.20;100.00;95749.34;5051148;28;20095;-49
2022/08/17 04:56:09;;;;;;;16.40;9.98;;;;;;;21.61;100.00;95750.41;5050899;28;20073;-58
2022/08/17 04:58:47;;;;;;;13.05;10.15;;;;;;;22.46;100.00;95744.56;5049183;28;20461;-54
2022/08/17 05:01:18;;;;;;;11.45;9.15;;;;;;;23.93;100.00;95745.66;5051260;28;20081;-57
2022/08/17 05:03:54;;;;;;;12.18;8.77;;;;;;;24.11;100.00;95744.56;5051300;28;20123;-54
2022/08/17 05:06:23;;;;;;;11.30;8.75;;;;;;;24.47;100.00;95749.69;5051420;28;20083;-54
2022/08/17 05:08:52;;;;;;;12.20;9.05;;;;;;;23.75;100.00;95747.81;5048067;28;20072;-51
2022/08/17 05:11:21;;;;;;;12.25;8.90;;;;;;;22.92;100.00;95742.00;5049279;28;20045;-51
2022/08/17 05:13:50;;;;;;;12.52;8.50;;;;;;;23.50;100.00;95743.56;5049324;28;20044;-50
2022/08/17 05:16:20;;;;;;;10.80;8.23;;;;;;;23.82;100.00;95735.78;5051249;28;20071;-53
2022/08/17 05:18:49;;;;;;;11.45;8.27;;;;;;;23.87;100.00;95733.16;5046276;28;20077;-51
2022/08/17 05:21:20;;;;;;;10.98;7.85;;;;;;;24.77;100.00;95738.44;5043075;28;20060;-56
2022/08/17 05:23:49;;;;;;;9.98;7.82;;;;;;;25.62;100.00;95731.50;5048852;28;20506;-51
2022/08/17 05:26:23;;;;;;;10.73;7.97;;;;;;;25.85;100.00;95729.56;5051277;28;20521;-53
2022/08/17 05:28:55;;;;;;;9.35;8.25;;;;;;;26.03;100.00;95732.66;5042868;28;20127;-50
2022/08/17 05:31:30;;;;;;;12.85;7.78;;;;;;;26.21;98.14;95742.22;5042511;28;20507;-52
2022/08/17 05:33:58;;;;;;;11.27;8.15;;;;;;;26.55;89.99;95741.09;5050921;28;20683;-55
2022/08/17 05:36:28;;;;;;;9.25;7.70;;;;;;;26.72;87.80;95736.28;5049719;28;20127;-52
2022/08/17 05:39:13;;;;;;;11.43;8.00;;;;;;;26.37;93.01;95745.03;5049779;28;20072;-54
2022/08/17 05:41:47;;;;;;;9.27;7.40;;;;;;;25.71;100.00;95754.28;5050172;28;20088;-56
2022/08/17 05:44:16;;;;;;;11.77;9.20;;;;;;;25.55;100.00;95741.69;5049286;28;20530;-51
2022/08/17 05:46:49;;;;;;;10.02;8.27;;;;;;;25.47;100.00;95745.69;5049807;28;20479;-52
2022/08/17 05:49:21;;;;;;;10.40;8.15;;;;;;;25.60;100.00;95749.84;5049798;28;20076;-50
2022/08/17 05:52:06;;;;;;;9.45;8.23;;;;;;;25.54;100.00;95761.69;5048580;28;20126;-52
2022/08/17 05:54:42;;;;;;;11.25;8.07;;;;;;;25.74;100.00;95761.88;5045461;28;20432;-52
2022/08/17 05:57:19;;;;;;;11.45;8.27;;;;;;;25.61;100.00;95759.59;5049976;28;20486;-53
2022/08/17 05:59:54;;;;;;;10.85;8.23;;;;;;;25.80;100.00;95768.94;5048908;28;20526;-51
2022/08/17 06:02:27;;;;;;;10.13;8.40;;;;;;;25.73;100.00;95770.19;5048072;28;20072;-53
2022/08/17 06:05:17;;;;;;;9.68;8.63;;;;;;;25.54;100.00;95769.78;5045547;28;20069;-55
2022/08/17 06:07:50;;;;;;;12.52;9.10;;;;;;;25.79;100.00;95771.88;5045234;28;20087;-56
2022/08/17 06:10:31;;;;;;;14.05;8.93;;;;;;;25.93;100.00;95767.69;5046713;28;20085;-53
2022/08/17 06:13:05;;;;;;;11.32;8.45;;;;;;;25.94;100.00;95773.91;5048376;28;20091;-54
2022/08/17 06:15:45;;;;;;;10.98;8.93;;;;;;;26.08;100.00;95774.28;5037758;28;20099;-48
2022/08/17 06:18:13;;;;;;;9.30;8.00;;;;;;;26.16;100.00;95777.34;5043395;28;20084;-50
2022/08/17 06:20:50;;;;;;;10.23;7.35;;;;;;;26.33;100.00;95781.78;5044549;28;20412;-50
2022/08/17 06:23:25;;;;;;;9.95;7.80;;;;;;;26.32;100.00;95786.34;5049318;28;20442;-52
2022/08/17 06:26:00;;;;;;;10.85;8.10;;;;;;;26.34;100.00;95799.59;5046358;28;20076;-54
2022/08/17 06:28:36;;;;;;;9.98;7.15;;;;;;;26.61;100.00;95794.94;5049142;28;20073;-49
2022/08/17 06:31:11;;;;;;;8.73;6.47;;;;;;;26.60;96.50;95806.84;5049297;28;20447;-55
2022/08/17 06:33:40;;;;;;;7.10;6.28;;;;;;;26.74;94.07;95797.16;5045042;28;20073;-51
2022/08/17 06:36:23;;;;;;;8.98;6.53;;;;;;;26.82;93.73;95792.34;5049203;28;20096;-47
2022/08/17 06:38:59;;;;;;;10.32;7.53;;;;;;;26.78;93.27;95794.75;5049487;28;20083;-53
2022/08/17 06:41:35;;;;;;;9.93;7.55;;;;;;;27.05;86.27;95804.59;5048717;28;20088;-52
2022/08/17 06:44:11;;;;;;;13.00;7.20;;;;;;;27.28;85.02;95792.53;5049358;28;20060;-49
2022/08/17 06:47:09;;;;;;;12.32;7.95;;;;;;;27.59;84.20;95793.41;5040355;28;20320;-48
2022/08/17 06:49:42;;;;;;;10.40;7.60;;;;;;;27.45;83.45;95798.50;5048609;28;20068;-49
2022/08/17 06:52:15;;;;;;;9.63;8.20;;;;;;;27.84;79.74;95796.19;5049089;28;20462;-48
2022/08/17 06:55:08;;;;;;;10.10;7.60;;;;;;;27.75;81.07;95808.59;5049048;28;20497;-48
2022/08/17 06:57:49;;;;;;;9.18;7.70;;;;;;;27.84;81.67;95806.19;5044235;28;20087;-48
2022/08/17 07:00:22;;;;;;;12.90;7.40;;;;;;;27.62;82.22;95801.78;5048697;28;20519;-52
2022/08/17 07:02:55;;;;;;;11.32;8.00;;;;;;;27.97;75.81;95800.22;5046629;28;20067;-54
2022/08/17 07:05:27;;;;;;;10.68;7.13;;;;;;;28.35;72.68;95806.16;5048881;28;20088;-50
2022/08/17 07:08:03;;;;;;;9.32;7.30;;;;;;;28.45;70.55;95800.75;5049173;28;20497;-47
2022/08/17 07:10:39;;;;;;;9.85;7.70;;;;;;;28.45;71.60;95800.75;5045886;28;20052;-49
2022/08/17 07:13:34;;;;;;;11.27;7.72;;;;;;;28.88;68.00;95814.75;5051935;28;20084;-51
2022/08/17 07:16:11;;;;;;;11.85;7.88;;;;;;;29.09;67.45;95820.97;5046124;28;20087;-53
2022/08/17 07:18:42;;;;;;;10.85;6.95;;;;;;;28.41;67.44;95815.94;5053107;28;20077;-51
2022/08/17 07:21:22;;;;;;;10.18;6.65;;;;;;;28.92;66.28;95818.53;5052776;28;20077;-47
2022/08/17 07:24:10;;;;;;;11.00;6.72;;;;;;;29.18;62.84;95826.59;5052920;28;20496;-53
2022/08/17 07:27:11;;;;;;;12.15;6.38;;;;;;;29.28;59.59;95823.84;5052970;28;20444;-56
2022/08/17 07:29:45;;;;;;;13.40;6.72;;;;;;;29.42;58.61;95829.47;5046430;28;20039;-53
2022/08/17 07:32:16;;;;;;;9.32;6.63;;;;;;;29.40;59.05;95826.25;5052205;28;20064;-53
2022/08/17 07:35:12;;;;;;;7.88;6.25;;;;;;;29.99;56.48;95828.06;5052893;28;20064;-49
2022/08/17 07:37:44;;;;;;;11.25;6.32;;;;;;;30.16;52.91;95823.03;5053061;28;20440;-54
2022/08/17 07:40:25;;;;;;;10.27;6.07;;;;;;;29.41;55.17;95823.25;5051603;28;20056;-51
2022/08/17 07:43:05;;;;;;;12.27;6.50;;;;;;;29.68;53.00;95827.47;5047487;28;20091;-50
2022/08/17 07:48:37;;;;;;;7.43;5.72;;;;;;;29.14;53.48;95836.41;5050158;28;20503;-47
2022/08/17 07:51:19;;;;;;;7.25;5.60;;;;;;;30.34;49.50;95821.53;5051754;28;20068;-51
2022/08/17 07:53:47;;;;;;;9.35;6.28;;;;;;;30.90;48.26;95825.63;5052423;28;20072;-53
2022/08/17 07:56:32;;;;;;;9.25;6.38;;;;;;;30.53;50.83;95815.41;5052285;28;20096;-53
2022/08/17 07:59:12;;;;;;;9.52;7.20;;;;;;;30.62;49.33;95829.97;5047553;28;20069;-52
2022/08/17 08:01:45;;;;;;;8.98;6.20;;;;;;;31.18;47.60;95826.69;5046624;28;20069;-52
2022/08/17 08:04:27;;;;;;;8.25;6.63;;;;;;;31.22;47.09;95838.63;5052571;28;20091;-54
2022/08/17 08:07:25;;;;;;;7.80;6.20;;;;;;;31.31;46.41;95841.50;5050878;28;20045;-48
2022/08/17 08:10:03;;;;;;;7.53;6.65;;;;;;;31.35;46.28;95848.84;5045635;28;20084;-48
2022/08/17 08:12:35;;;;;;;9.18;6.53;;;;;;;31.41;45.59;95847.66;5048230;28;20511;-49
2022/08/17 08:15:17;;;;;;;12.30;6.78;;;;;;;31.13;46.52;95851.25;5052035;28;20072;-51
2022/08/17 08:17:49;;;;;;;7.40;6.18;;;;;;;31.49;46.11;95848.09;5052051;28;20091;-54
2022/08/17 08:20:20;;;;;;;7.93;6.05;;;;;;;30.97;46.69;95846.00;5051682;28;20088;-57
2022/08/17 08:23:15;;;;;;;9.52;5.70;;;;;;;31.88;44.26;95842.41;5050749;28;20526;-49
2022/08/17 08:25:50;;;;;;;8.07;5.72;;;;;;;32.11;44.85;95833.31;5051668;28;20088;-53
2022/08/17 08:28:28;;;;;;;7.65;5.68;;;;;;;32.24;43.40;95833.66;5051948;28;20084;-50
2022/08/17 08:31:05;;;;;;;7.70;5.78;;;;;;;32.36;43.17;95840.25;5051272;28;20142;-53
2022/08/17 08:33:46;;;;;;;9.60;5.95;;;;;;;31.41;44.18;95830.50;5051848;28;20076;-49
2022/08/17 08:36:25;;;;;;;9.82;5.93;;;;;;;31.40;44.72;95835.13;5048111;28;20049;-51
2022/08/17 08:39:19;;;;;;;7.50;6.15;;;;;;;32.50;42.82;95823.97;5047012;28;20464;-49
2022/08/17 08:41:55;;;;;;;8.40;5.85;;;;;;;32.58;43.05;95822.44;5050525;28;20083;-50
2022/08/17 08:44:34;;;;;;;7.10;5.70;;;;;;;32.24;43.76;95820.81;5050270;28;20085;-53
2022/08/17 08:47:33;;;;;;;6.60;5.35;;;;;;;32.48;43.60;95811.72;5051187;28;20100;-51
2022/08/17 08:50:13;;;;;;;9.65;5.38;;;;;;;32.81;43.01;95815.19;5051439;28;20084;-53
2022/08/17 08:53:13;;;;;;;6.30;5.00;;;;;;;32.50;42.75;95820.41;5049358;28;20186;-53
2022/08/17 08:55:49;;;;;;;9.70;4.93;;;;;;;32.93;41.78;95831.06;5044773;28;20088;-56
2022/08/17 08:58:22;;;;;;;7.50;5.07;;;;;;;32.99;41.11;95833.44;5051537;28;20100;-57
2022/08/17 09:01:15;;;;;;;8.93;4.57;;;;;;;32.88;41.78;95812.06;5050829;28;20077;-56
2022/08/17 09:04:03;;;;;;;7.97;4.95;;;;;;;32.63;43.69;95818.84;5039970;28;20072;-55
2022/08/17 09:06:58;;;;;;;9.38;4.40;;;;;;;32.74;43.89;95812.88;5050707;28;20069;-52
2022/08/17 09:09:35;;;;;;;7.28;4.43;;;;;;;32.97;42.37;95811.09;5050115;28;20057;-55
2022/08/17 09:12:08;;;;;;;9.98;4.75;;;;;;;32.57;42.73;95809.91;5049796;28;20151;-54
2022/08/17 09:14:39;;;;;;;8.68;4.30;;;;;;;32.73;42.19;95815.91;5044257;28;20475;-53
2022/08/17 09:17:17;;;;;;;6.55;4.32;;;;;;;32.39;42.30;95814.31;5051429;28;20080;-54
2022/08/17 09:19:51;;;;;;;5.55;4.07;;;;;;;32.98;41.68;95812.72;5050080;28;20120;-58
2022/08/17 09:22:30;;;;;;;5.20;4.07;;;;;;;33.14;42.02;95810.50;5044702;28;20536;-55
2022/08/17 09:25:05;;;;;;;6.05;4.60;;;;;;;33.12;41.85;95815.44;5050557;28;20080;-56
2022/08/17 09:27:37;;;;;;;7.18;4.03;;;;;;;32.97;41.63;95813.84;5050723;28;20080;-56
2022/08/17 09:30:08;;;;;;;7.20;4.10;;;;;;;33.12;41.63;95811.91;5049927;28;20073;-51
2022/08/17 09:32:39;;;;;;;9.27;4.57;;;;;;;33.45;41.59;95807.91;5043584;28;20542;-51
2022/08/17 09:35:15;;;;;;;5.28;4.43;;;;;;;34.14;40.43;95806.94;5042702;28;20096;-51
2022/08/17 09:37:51;;;;;;;10.23;4.60;;;;;;;33.36;41.09;95808.94;5049913;28;20081;-57
2022/08/17 09:40:24;;;;;;;5.60;3.90;;;;;;;33.57;40.63;95812.06;5050165;28;20076;-56
2022/08/17 09:42:58;;;;;;;5.15;4.32;;;;;;;33.30;41.29;95828.16;5050201;28;20075;-57
2022/08/17 09:45:30;;;;;;;7.00;4.10;;;;;;;33.87;39.73;95833.25;5050843;28;20472;-57
2022/08/17 09:48:03;;;;;;;6.47;4.28;;;;;;;34.58;39.20;95830.72;5050812;28;20496;-55
2022/08/17 09:50:40;;;;;;;7.80;4.30;;;;;;;33.73;39.70;95837.97;5049566;28;20087;-54
2022/08/17 09:53:28;;;;;;;8.25;4.25;;;;;;;33.27;40.47;95836.97;5047209;28;20081;-52
2022/08/17 09:56:09;;;;;;;8.05;4.05;;;;;;;33.62;40.07;95823.72;5050026;28;20088;-53
2022/08/17 09:58:49;;;;;;;6.43;4.18;;;;;;;33.51;40.23;95812.16;5046277;28;20081;-52
2022/08/17 10:01:25;;;;;;;4.43;3.65;;;;;;;33.69;39.05;95804.13;5045210;28;20084;-49
2022/08/17 10:04:18;;;;;;;4.80;4.07;;;;;;;33.70;38.60;95808.50;5041210;28;20077;-51
2022/08/17 10:06:53;;;;;;;7.25;3.92;;;;;;;34.60;38.24;95803.03;5050234;28;20091;-48
2022/08/17 10:09:39;;;;;;;4.93;3.92;;;;;;;34.71;38.21;95805.19;5049190;28;20072;-51
2022/08/17 10:12:19;;;;;;;6.10;3.90;;;;;;;34.59;36.94;95806.91;5049444;28;20072;-52
2022/08/17 10:14:58;;;;;;;8.57;3.47;;;;;;;34.13;37.34;95808.84;5049638;28;20115;-55
2022/08/17 10:17:39;;;;;;;3.90;3.58;;;;;;;34.66;36.26;95808.06;5048096;28;20084;-53
2022/08/17 10:20:11;;;;;;;4.00;3.53;;;;;;;34.31;36.33;95819.91;5048895;28;20084;-56
2022/08/17 10:28:25;;;;;;;5.07;3.53;;;;;;;34.01;36.31;95809.41;5049917;28;20048;-51
2022/08/17 10:31:00;;;;;;;5.55;3.35;;;;;;;34.38;36.28;95791.00;5038596;28;20079;-49
2022/08/17 10:34:06;;;;;;;6.03;3.63;;;;;;;34.39;36.21;95808.22;5046354;28;20114;-51
2022/08/17 10:36:44;;;;;;;4.97;3.75;;;;;;;34.85;36.21;95796.88;5049745;28;20534;-51
2022/08/17 10:39:22;;;;;;;4.10;3.65;;;;;;;35.63;35.61;95799.06;5049717;28;20084;-51
2022/08/17 10:41:55;;;;;;;5.72;3.60;;;;;;;35.06;36.08;95797.13;5048647;28;20088;-54
2022/08/17 10:44:28;;;;;;;4.15;3.75;;;;;;;35.15;35.22;95802.66;5048078;28;20144;-52
2022/08/17 10:47:10;;;;;;;6.35;3.80;;;;;;;34.96;35.75;95787.25;5048586;28;20085;-51
2022/08/17 10:49:46;;;;;;;4.15;3.55;;;;;;;35.49;34.89;95790.16;5049110;28;20100;-54
2022/08/17 10:52:48;;;;;;;6.15;3.90;;;;;;;35.12;36.06;95790.38;5048678;28;20084;-58
2022/08/17 10:55:19;;;;;;;5.93;3.95;;;;;;;35.06;35.75;95786.16;5045550;28;20091;-56
2022/08/17 10:57:49;;;;;;;4.32;3.80;;;;;;;35.81;35.07;95784.22;5041497;28;20554;-55
2022/08/17 11:01:06;;;;;;;4.50;3.60;;;;;;;35.56;35.02;95793.25;5043728;28;20538;-55
2022/08/17 11:03:35;;;;;;;5.78;3.97;;;;;;;36.38;34.56;95802.44;5047502;28;20126;-56
2022/08/17 11:06:11;;;;;;;4.22;3.35;;;;;;;36.32;33.84;95803.72;5049104;28;20091;-54
2022/08/17 11:09:10;;;;;;;4.32;3.55;;;;;;;36.81;32.76;95802.31;5049561;28;20705;-52
2022/08/17 11:12:05;;;;;;;5.17;3.53;;;;;;;36.97;32.74;95799.88;5046348;28;20077;-56
2022/08/17 11:14:43;;;;;;;4.68;3.40;;;;;;;36.93;32.32;95798.88;5043891;28;20097;-52
2022/08/17 11:17:29;;;;;;;5.75;3.70;;;;;;;36.51;32.22;95792.41;5048507;28;20081;-52
2022/08/17 11:20:25;;;;;;;5.60;3.55;;;;;;;36.39;33.10;95804.03;5047582;28;20487;-52
2022/08/17 11:23:04;;;;;;;4.03;3.60;;;;;;;37.12;32.08;95795.75;5048727;28;20099;-50
2022/08/17 11:25:35;;;;;;;5.13;3.83;;;;;;;37.03;32.05;95798.56;5048803;28;20084;-56
2022/08/17 11:28:14;;;;;;;4.65;3.33;;;;;;;36.49;32.38;95794.69;5046038;28;20080;-55
2022/08/17 11:30:47;;;;;;;4.70;3.78;;;;;;;36.26;32.12;95808.56;5046775;28;20084;-53
2022/08/17 11:33:52;;;;;;;4.03;3.50;;;;;;;37.97;30.71;95795.53;5044143;28;20482;-52
2022/08/17 11:36:54;;;;;;;3.80;3.40;;;;;;;38.07;30.41;95799.84;5048799;28;20096;-55
2022/08/17 11:39:34;;;;;;;4.90;3.80;;;;;;;37.35;30.55;95803.72;5019092;28;20091;-56
2022/08/17 11:42:05;;;;;;;4.28;3.40;;;;;;;36.32;32.11;95798.25;5046635;28;20554;-53
2022/08/17 11:44:46;;;;;;;5.50;3.67;;;;;;;37.28;31.48;95785.78;5047695;28;20076;-54
2022/08/17 11:53:46;;;;;;;4.57;3.60;;;;;;;37.76;30.87;95783.72;5036656;28;20034;-59
2022/08/17 11:56:32;;;;;;;4.00;3.60;;;;;;;37.10;31.52;95786.22;5048397;28;20089;-53
2022/08/17 11:59:01;;;;;;;7.68;4.07;;;;;;;36.36;32.76;95793.69;5051649;28;20068;-56
2022/08/17 12:01:54;;;;;;;4.43;4.00;;;;;;;36.40;32.52;95799.34;5051519;28;20076;-51
2022/08/17 12:04:28;;;;;;;4.97;3.83;;;;;;;37.55;31.22;95793.91;5052350;28;20502;-55
2022/08/17 12:07:00;;;;;;;5.72;4.15;;;;;;;37.22;31.62;95798.09;5045891;28;20566;-58
2022/08/17 12:09:30;;;;;;;4.60;3.60;;;;;;;37.93;30.13;95799.31;5042554;28;20065;-51
2022/08/17 12:12:04;;;;;;;5.30;4.00;;;;;;;38.17;29.80;95801.38;5049746;28;20084;-51
2022/08/17 12:14:46;;;;;;;4.90;3.97;;;;;;;36.75;30.40;95800.06;5051957;28;20080;-50
2022/08/17 12:17:36;;;;;;;5.53;3.92;;;;;;;37.82;29.59;95804.38;5047129;28;20083;-57
2022/08/17 12:20:13;;;;;;;4.50;4.07;;;;;;;38.14;29.59;95804.78;5045839;28;20092;-53
2022/08/17 12:22:52;;;;;;;5.60;3.40;;;;;;;38.80;29.47;95807.53;5048606;28;20077;-52
2022/08/17 12:25:24;;;;;;;6.07;3.80;;;;;;;37.33;30.49;95798.53;5051285;28;20080;-57
2022/08/17 12:27:53;;;;;;;6.47;3.70;;;;;;;37.32;30.55;95798.88;5051067;28;20439;-52
2022/08/17 12:30:35;;;;;;;5.63;3.67;;;;;;;37.16;30.56;95793.94;5051397;28;20574;-54
2022/08/17 12:33:12;;;;;;;5.65;3.58;;;;;;;37.19;29.75;95786.97;5051464;28;20087;-55